createdAt,value
2018-12-06T00:00:19.744Z,2.77
2018-12-06T00:05:22.826Z,2.43
2018-12-06T00:10:26.134Z,2.80
2018-12-06T00:15:29.510Z,2.50
2018-12-06T00:20:32.790Z,3.23
2018-12-06T00:25:36.089Z,3.40
2018-12-06T00:30:40.776Z,2.53
2018-12-06T00:35:44.059Z,3.57
2018-12-06T00:40:47.349Z,2.45
2018-12-06T00:45:50.827Z,3.27
2018-12-06T00:50:54.102Z,2.83
2018-12-06T00:55:57.411Z,2.90
2018-12-06T01:01:00.744Z,2.33
2018-12-06T01:06:04.031Z,2.50
2018-12-06T01:11:07.331Z,2.43
2018-12-06T01:16:10.696Z,2.10
2018-12-06T01:21:13.978Z,2.43
2018-12-06T01:26:17.270Z,2.13
2018-12-06T01:31:20.613Z,2.42
2018-12-06T01:36:23.883Z,2.40
2018-12-06T01:41:27.162Z,2.10
2018-12-06T01:46:30.443Z,1.40
2018-12-06T01:51:33.862Z,2.63
2018-12-06T01:56:37.070Z,2.90
2018-12-06T02:01:40.379Z,3.27
2018-12-06T02:06:43.762Z,1.87
2018-12-06T02:11:47.046Z,2.50
2018-12-06T02:16:50.371Z,1.60
2018-12-06T02:21:53.648Z,3.07
2018-12-06T02:26:57.078Z,3.10
2018-12-06T02:32:00.361Z,2.00
2018-12-06T02:37:03.650Z,2.80
2018-12-06T02:42:07.030Z,2.03
2018-12-06T02:47:10.384Z,2.27
2018-12-06T02:52:13.884Z,1.23
2018-12-06T02:57:17.350Z,2.67
2018-12-06T03:02:20.653Z,1.87
2018-12-06T03:07:23.987Z,1.80
2018-12-06T03:12:27.252Z,2.10
2018-12-06T03:17:30.598Z,1.53
2018-12-06T03:22:33.915Z,2.07
2018-12-06T03:27:37.233Z,2.03
2018-12-06T03:32:40.566Z,2.30
2018-12-06T03:37:43.903Z,2.43
2018-12-06T03:42:47.298Z,1.40
2018-12-06T03:47:50.626Z,2.60
2018-12-06T03:52:53.953Z,2.77
2018-12-06T03:57:57.287Z,2.07
2018-12-06T04:03:00.548Z,2.73
2018-12-06T04:08:03.881Z,2.60
2018-12-06T04:13:07.175Z,1.67
2018-12-06T04:18:10.465Z,1.63
2018-12-06T04:23:14.843Z,2.63
2018-12-06T04:28:18.116Z,2.03
2018-12-06T04:33:21.401Z,1.57
2018-12-06T04:38:24.770Z,2.43
2018-12-06T04:43:28.039Z,1.77
2018-12-06T04:48:31.307Z,2.30
2018-12-06T04:53:34.687Z,2.00
2018-12-06T04:58:38.011Z,1.33
2018-12-06T05:03:41.284Z,2.40
2018-12-06T05:08:44.623Z,3.60
2018-12-06T05:13:47.890Z,2.40
2018-12-06T05:18:51.187Z,1.77
2018-12-06T05:23:54.578Z,2.00
2018-12-06T05:28:57.848Z,2.00
2018-12-06T05:34:01.128Z,2.83
2018-12-06T05:39:07.039Z,1.77
2018-12-06T05:44:10.310Z,3.57
2018-12-06T05:49:13.586Z,4.53
2018-12-06T05:54:16.972Z,3.50
2018-12-06T05:59:20.244Z,2.67
2018-12-06T06:04:23.530Z,3.80
2018-12-06T06:09:26.887Z,3.37
2018-12-06T06:14:30.170Z,2.77
2018-12-06T06:19:33.446Z,2.60
2018-12-06T06:24:36.719Z,2.37
2018-12-06T06:29:40.027Z,3.03
2018-12-06T06:34:43.308Z,2.10
2018-12-06T06:39:46.613Z,2.00
2018-12-06T06:44:54.137Z,2.53
2018-12-06T06:49:57.442Z,2.00
2018-12-06T06:55:01.797Z,1.77
2018-12-06T07:00:05.915Z,1.90
2018-12-06T07:05:09.187Z,2.00
2018-12-06T07:10:12.525Z,2.05
2018-12-06T07:15:15.942Z,3.33
2018-12-06T07:20:19.260Z,2.67
2018-12-06T07:25:22.593Z,2.22
2018-12-06T07:30:25.886Z,2.83
2018-12-06T07:35:29.162Z,2.63
2018-12-06T07:40:32.483Z,2.97
2018-12-06T07:45:35.756Z,2.97
2018-12-06T07:50:39.095Z,2.40
2018-12-06T07:55:43.443Z,2.13
2018-12-06T08:00:46.739Z,3.00
2018-12-06T08:05:50.028Z,3.60
2018-12-06T08:10:53.363Z,3.03
2018-12-06T08:15:56.651Z,4.17
2018-12-06T08:20:59.936Z,3.03
2018-12-06T08:26:03.243Z,2.30
2018-12-06T08:31:06.551Z,2.63
2018-12-06T08:36:09.963Z,1.77
2018-12-06T08:41:13.284Z,2.40
2018-12-06T08:46:16.652Z,3.37
2018-12-06T08:51:20.015Z,3.20
2018-12-06T08:56:23.307Z,3.63
2018-12-06T09:01:26.574Z,2.13
2018-12-06T09:06:29.864Z,2.13
2018-12-06T09:11:33.137Z,3.37
2018-12-06T09:16:36.444Z,3.43
2018-12-06T09:21:39.782Z,2.50
2018-12-06T09:26:43.059Z,2.40
2018-12-06T09:31:46.441Z,2.10
2018-12-06T09:36:49.815Z,2.87
2018-12-06T09:41:53.211Z,2.73
2018-12-06T09:46:56.622Z,2.57
2018-12-06T09:51:59.889Z,2.60
2018-12-06T09:57:03.172Z,2.63
2018-12-06T10:02:06.496Z,2.17
2018-12-06T10:07:09.833Z,2.17
2018-12-06T10:12:13.120Z,1.90
2018-12-06T10:17:16.530Z,1.90
2018-12-06T10:22:19.898Z,1.97
2018-12-06T10:27:23.188Z,2.07
2018-12-06T10:32:26.529Z,1.80
2018-12-06T10:37:29.850Z,3.00
2018-12-06T10:42:33.125Z,1.83
2018-12-06T10:47:36.399Z,2.77
2018-12-06T10:52:39.684Z,2.07
2018-12-06T10:57:44.051Z,1.63
2018-12-06T11:02:48.377Z,2.63
2018-12-06T11:07:51.652Z,3.10
2018-12-06T11:12:54.996Z,1.80
2018-12-06T11:17:58.384Z,2.33
2018-12-06T11:23:01.765Z,2.60
2018-12-06T11:28:05.038Z,2.13
2018-12-06T11:33:08.337Z,2.77
2018-12-06T11:38:12.662Z,1.83
2018-12-06T11:43:16.008Z,2.40
2018-12-06T11:48:26.680Z,2.67
2018-12-06T11:53:23.012Z,2.47
2018-12-06T11:58:26.432Z,7.93
2018-12-06T12:03:29.842Z,6.77
2018-12-06T12:08:33.111Z,3.80
2018-12-06T12:13:36.454Z,2.77
2018-12-06T12:18:39.801Z,4.00
2018-12-06T12:23:43.150Z,2.93
2018-12-06T12:28:46.446Z,2.13
2018-12-06T12:33:49.890Z,2.83
2018-12-06T12:38:53.284Z,2.80
2018-12-06T12:43:56.768Z,2.45
2018-12-06T12:49:00.187Z,2.93
2018-12-06T12:54:03.507Z,2.63
2018-12-06T12:59:06.924Z,3.03
2018-12-06T13:04:10.253Z,3.80
2018-12-06T13:09:13.657Z,2.93
2018-12-06T13:14:16.964Z,3.00
2018-12-06T13:19:20.262Z,2.63
2018-12-06T13:24:23.631Z,2.90
2018-12-06T13:29:26.926Z,4.10
2018-12-06T13:34:30.199Z,3.27
2018-12-06T13:39:33.585Z,4.63
2018-12-06T13:44:36.921Z,5.80
2018-12-06T13:49:41.855Z,5.73
2018-12-06T13:54:43.588Z,5.13
2018-12-06T13:59:46.950Z,5.57
2018-12-06T14:04:50.424Z,5.30
2018-12-06T14:09:53.904Z,4.15
2018-12-06T14:14:57.207Z,4.03
2018-12-06T14:20:00.628Z,2.83
2018-12-06T14:25:04.175Z,2.93
2018-12-06T14:30:07.992Z,3.17
2018-12-06T14:35:11.344Z,3.63
2018-12-06T14:40:14.795Z,4.77
2018-12-06T14:45:18.844Z,5.37
2018-12-06T14:50:21.807Z,3.93
2018-12-06T14:55:25.173Z,3.03
2018-12-06T15:00:28.731Z,3.17
2018-12-06T15:05:32.120Z,2.93
2018-12-06T15:10:35.622Z,5.50
2018-12-06T15:15:38.910Z,5.67
2018-12-06T15:20:42.347Z,5.60
2018-12-06T15:25:45.664Z,4.67
2018-12-06T15:30:49.104Z,5.20
2018-12-06T15:35:52.447Z,4.37
2018-12-06T15:40:55.853Z,5.57
2018-12-06T15:45:59.127Z,6.67
2018-12-06T15:51:02.757Z,6.47
2018-12-06T15:56:06.508Z,5.77
2018-12-06T16:01:09.814Z,6.53
2018-12-06T16:06:13.143Z,6.27
2018-12-06T16:11:16.516Z,6.87
2018-12-06T16:16:19.787Z,5.33
2018-12-06T16:21:23.108Z,5.87
2018-12-06T16:26:26.497Z,6.57
2018-12-06T16:31:29.943Z,6.23
2018-12-06T16:36:33.366Z,6.40
2018-12-06T16:41:36.811Z,7.60
2018-12-06T16:46:40.284Z,7.60
2018-12-06T16:51:43.764Z,8.63
2018-12-06T16:56:47.876Z,8.23
2018-12-06T17:01:51.319Z,7.47
2018-12-06T17:06:54.716Z,8.05
2018-12-06T17:11:58.144Z,9.57
2018-12-06T17:17:01.519Z,9.90
2018-12-06T17:22:04.865Z,7.27
2018-12-06T17:27:08.241Z,6.70
2018-12-06T17:32:11.826Z,7.33
2018-12-06T17:37:15.300Z,7.30
2018-12-06T17:42:19.886Z,8.37
2018-12-06T17:47:23.412Z,7.77
2018-12-06T17:52:26.933Z,6.13
2018-12-06T17:57:31.455Z,6.40
2018-12-06T18:02:34.861Z,5.67
2018-12-06T18:07:38.359Z,5.13
2018-12-06T18:12:41.786Z,5.37
2018-12-06T18:17:45.306Z,5.63
2018-12-06T18:22:48.711Z,6.30
2018-12-06T18:27:52.082Z,5.97
2018-12-06T18:32:55.542Z,6.10
2018-12-06T18:37:58.892Z,6.05
2018-12-06T18:43:02.439Z,6.23
2018-12-06T18:48:06.022Z,8.27
2018-12-06T18:53:09.487Z,5.77
2018-12-06T18:58:12.837Z,5.70
2018-12-06T19:03:16.227Z,5.03
2018-12-06T19:08:19.603Z,4.70
2018-12-06T19:13:22.938Z,6.60
2018-12-06T19:18:27.431Z,6.07
2018-12-06T19:23:30.852Z,7.53
2018-12-06T19:28:35.175Z,4.77
2018-12-06T19:33:39.091Z,4.77
2018-12-06T19:38:42.983Z,5.03
2018-12-06T19:43:48.980Z,4.53
2018-12-06T19:48:52.757Z,6.40
2018-12-06T19:53:56.318Z,5.08
2018-12-06T19:58:59.904Z,5.57
2018-12-06T20:04:03.848Z,5.83
2018-12-06T20:09:10.363Z,5.80
2018-12-06T20:14:13.768Z,5.77
2018-12-06T20:19:17.476Z,5.87
2018-12-06T20:24:21.490Z,6.27
2018-12-06T20:29:25.163Z,6.07
2018-12-06T20:34:28.604Z,5.33
2018-12-06T20:39:32.581Z,5.23
2018-12-06T20:44:37.336Z,6.47
2018-12-06T20:49:41.311Z,5.40
2018-12-06T20:54:45.524Z,5.13
2018-12-06T20:59:48.923Z,5.67
2018-12-06T21:04:52.552Z,7.27
2018-12-06T21:09:56.504Z,6.07
2018-12-06T21:15:00.295Z,5.47
2018-12-06T21:20:03.882Z,5.17
2018-12-06T21:25:08.719Z,5.20
2018-12-06T21:30:12.673Z,6.63
2018-12-06T21:35:16.811Z,5.37
2018-12-06T21:40:20.586Z,5.57
2018-12-06T21:45:24.617Z,5.77
2018-12-06T21:50:28.656Z,4.83
2018-12-06T21:55:32.664Z,4.50
2018-12-06T22:00:36.504Z,4.50
2018-12-06T22:05:41.159Z,5.27
2018-12-06T22:10:45.514Z,5.50
2018-12-06T22:15:49.636Z,5.00
2018-12-06T22:20:52.958Z,4.07
2018-12-06T22:25:56.512Z,5.07
2018-12-06T22:31:00.263Z,5.57
2018-12-06T22:36:03.554Z,5.93
2018-12-06T22:41:07.040Z,6.00
2018-12-06T22:46:11.129Z,5.67
2018-12-06T22:51:14.959Z,5.27
2018-12-06T22:56:19.064Z,5.67
2018-12-06T23:01:27.681Z,4.80
2018-12-06T23:06:31.444Z,5.20
2018-12-06T23:11:34.671Z,4.83
2018-12-06T23:16:38.019Z,5.60
2018-12-06T23:21:41.363Z,6.03
2018-12-06T23:26:44.642Z,5.37
2018-12-06T23:31:48.116Z,5.83
2018-12-06T23:36:51.400Z,6.87
2018-12-06T23:41:54.696Z,4.90
2018-12-06T23:46:58.047Z,4.55
2018-12-06T23:52:01.344Z,6.53
2018-12-06T23:57:04.710Z,5.53
